createdAt,value
2019-03-10T00:01:00.410Z,143095.94
2019-03-10T00:05:56.429Z,143101.80
2019-03-10T00:10:52.412Z,143095.94
2019-03-10T00:15:48.323Z,143100.66
2019-03-10T00:20:44.347Z,143108.86
2019-03-10T00:25:40.270Z,143131.09
2019-03-10T00:30:36.180Z,143135.77
2019-03-10T00:35:32.200Z,143145.12
2019-03-10T00:41:05.842Z,143138.11
2019-03-10T00:46:17.636Z,143135.77
2019-03-10T00:51:29.850Z,143112.37
2019-03-10T00:56:25.971Z,143127.59
2019-03-10T01:01:21.890Z,143114.67
2019-03-10T01:06:17.803Z,143122.87
2019-03-10T01:11:13.815Z,143133.41
2019-03-10T01:16:09.918Z,143136.95
2019-03-10T01:21:06.235Z,143124.05
2019-03-10T01:26:02.220Z,143135.77
2019-03-10T01:31:07.958Z,143133.41
2019-03-10T01:36:07.850Z,143136.95
2019-03-10T01:41:03.788Z,143121.73
2019-03-10T01:45:59.704Z,143133.41
2019-03-10T01:50:55.622Z,143121.73
2019-03-10T01:55:51.545Z,143131.09
2019-03-10T02:00:47.683Z,143110.02
2019-03-10T02:05:43.649Z,143104.16
2019-03-10T02:10:39.668Z,143098.30
2019-03-10T02:15:35.591Z,143086.58
2019-03-10T02:20:31.611Z,143074.91
2019-03-10T02:25:27.532Z,143070.20
2019-03-10T02:30:23.540Z,143084.27
2019-03-10T02:35:19.455Z,143072.56
2019-03-10T02:40:15.402Z,143088.94
2019-03-10T02:45:11.456Z,143093.64
2019-03-10T02:50:08.977Z,143105.31
2019-03-10T02:55:06.999Z,143112.37
2019-03-10T03:00:08.568Z,143104.16
2019-03-10T03:05:06.495Z,143110.02
2019-03-10T03:10:04.517Z,143110.02
2019-03-10T03:15:00.494Z,143117.03
2019-03-10T03:19:56.493Z,143121.73
2019-03-10T03:24:52.460Z,143119.37
2019-03-10T03:29:48.453Z,143131.09
2019-03-10T03:34:44.484Z,143128.75
2019-03-10T03:39:40.506Z,143120.53
2019-03-10T03:44:36.555Z,143115.87
2019-03-10T03:49:32.493Z,143126.39
2019-03-10T03:54:28.410Z,143122.87
2019-03-10T03:59:24.370Z,143114.67
2019-03-10T04:04:20.308Z,143115.87
2019-03-10T04:09:16.318Z,143095.94
2019-03-10T04:14:12.254Z,143072.56
2019-03-10T04:19:08.170Z,143056.19
2019-03-10T04:24:04.096Z,143042.11
2019-03-10T04:29:00.061Z,143028.09
2019-03-10T04:33:55.978Z,143037.45
2019-03-10T04:38:51.917Z,143036.25
2019-03-10T04:43:47.805Z,143009.38
2019-03-10T04:48:43.735Z,142995.30
2019-03-10T04:53:39.677Z,142993.00
2019-03-10T04:58:37.581Z,142988.30
2019-03-10T05:03:33.505Z,143003.52
2019-03-10T05:08:29.422Z,143001.16
2019-03-10T05:13:26.826Z,142934.48
2019-03-10T05:18:22.744Z,142884.19
2019-03-10T05:23:35.960Z,142909.91
2019-03-10T05:28:34.888Z,142973.08
2019-03-10T05:33:30.798Z,142941.48
2019-03-10T05:38:26.740Z,142967.22
2019-03-10T05:43:22.665Z,142960.22
2019-03-10T05:48:18.594Z,142936.83
2019-03-10T05:53:14.506Z,142941.48
2019-03-10T05:58:10.482Z,142901.70
2019-03-10T06:03:06.445Z,142833.89
2019-03-10T06:08:02.470Z,142810.48
2019-03-10T06:12:58.413Z,142791.77
2019-03-10T06:17:54.505Z,142787.13
2019-03-10T06:22:50.418Z,142775.41
2019-03-10T06:27:47.048Z,142771.91
2019-03-10T06:32:43.034Z,142780.06
2019-03-10T06:37:38.966Z,142787.13
2019-03-10T06:42:34.924Z,142776.56
2019-03-10T06:47:30.844Z,142798.78
2019-03-10T06:52:26.761Z,142813.98
2019-03-10T06:57:25.854Z,142822.19
2019-03-10T07:02:21.773Z,142826.84
2019-03-10T07:07:17.720Z,142825.69
2019-03-10T07:12:13.716Z,142833.89
2019-03-10T07:17:09.660Z,142824.53
2019-03-10T07:22:05.570Z,142833.89
2019-03-10T07:27:10.713Z,142861.97
2019-03-10T07:32:11.504Z,142850.25
2019-03-10T07:37:25.951Z,142823.34
2019-03-10T07:42:41.943Z,142815.19
2019-03-10T07:47:39.867Z,142796.47
2019-03-10T07:52:54.036Z,142760.20
2019-03-10T07:58:00.961Z,142802.33
2019-03-10T08:03:01.817Z,142840.91
2019-03-10T08:08:05.852Z,142885.34
2019-03-10T08:18:23.441Z,142959.06
2019-03-10T08:23:30.454Z,142956.70
2019-03-10T08:28:31.042Z,142971.92
2019-03-10T08:33:45.932Z,143014.03
2019-03-10T08:38:55.852Z,143001.16
2019-03-10T08:43:54.685Z,142998.81
2019-03-10T08:48:52.506Z,142960.22
2019-03-10T08:53:53.385Z,142985.94
2019-03-10T08:59:07.892Z,143037.45
2019-03-10T09:04:21.145Z,143056.19
2019-03-10T09:09:26.282Z,143053.83
2019-03-10T09:14:24.104Z,143073.70
2019-03-10T09:19:21.929Z,143099.50
2019-03-10T09:24:22.303Z,143098.30
2019-03-10T09:29:36.696Z,143092.44
2019-03-10T09:34:34.538Z,143098.30
2019-03-10T09:39:32.374Z,143112.37
2019-03-10T09:44:36.489Z,143115.87
2019-03-10T09:49:48.117Z,143098.30
2019-03-10T09:54:57.560Z,143095.94
2019-03-10T09:59:56.440Z,143122.87
2019-03-10T10:04:54.418Z,143163.86
2019-03-10T10:10:08.779Z,143133.41
2019-03-10T10:15:10.199Z,143136.95
2019-03-10T10:20:23.110Z,143177.94
2019-03-10T10:25:20.963Z,143194.31
2019-03-10T10:30:21.805Z,143113.53
2019-03-10T10:35:25.690Z,143124.05
2019-03-10T10:40:29.573Z,143122.87
2019-03-10T10:45:30.238Z,143138.11
2019-03-10T10:50:45.125Z,143217.72
2019-03-10T10:55:45.953Z,143115.87
2019-03-10T11:01:02.165Z,142920.42
2019-03-10T11:06:00.038Z,142995.30
2019-03-10T11:11:14.410Z,143121.73
2019-03-10T11:16:24.060Z,143147.47
2019-03-10T11:21:36.947Z,143140.47
2019-03-10T11:26:38.354Z,143173.22
2019-03-10T11:31:36.295Z,143208.34
2019-03-10T11:36:34.172Z,143190.81
2019-03-10T11:41:43.731Z,143284.50
2019-03-10T11:46:41.545Z,143295.03
2019-03-10T11:51:55.755Z,143313.81
2019-03-10T11:57:05.780Z,143318.53
2019-03-10T12:02:03.622Z,143309.16
2019-03-10T12:07:01.438Z,143292.67
2019-03-10T12:11:57.356Z,143309.16
2019-03-10T12:16:53.270Z,143318.53
2019-03-10T12:21:49.277Z,143330.22
2019-03-10T12:26:45.226Z,143318.53
2019-03-10T12:31:41.112Z,143302.09
2019-03-10T12:36:37.821Z,143290.38
2019-03-10T12:41:33.876Z,143262.25
2019-03-10T12:46:29.866Z,143300.94
2019-03-10T12:51:25.770Z,143295.03
2019-03-10T12:56:21.734Z,143303.30
2019-03-10T13:01:17.691Z,143311.47
2019-03-10T13:06:13.602Z,143385.30
2019-03-10T13:11:10.764Z,143378.28
2019-03-10T13:16:06.789Z,143414.58
2019-03-10T13:21:04.135Z,143386.45
2019-03-10T13:26:00.305Z,143395.83
2019-03-10T13:30:56.220Z,143313.81
2019-03-10T13:35:52.181Z,143283.30
2019-03-10T13:40:48.970Z,143262.25
2019-03-10T13:45:45.528Z,143255.19
2019-03-10T13:50:42.461Z,143326.70
2019-03-10T13:55:39.206Z,143265.77
2019-03-10T14:00:35.317Z,143346.59
2019-03-10T14:05:31.814Z,143382.94
2019-03-10T14:10:27.851Z,143468.47
2019-03-10T14:15:26.262Z,143494.30
2019-03-10T14:20:22.300Z,143495.45
2019-03-10T14:25:18.733Z,143487.23
2019-03-10T14:30:17.574Z,143513.06
2019-03-10T14:35:14.925Z,143606.86
2019-03-10T14:40:16.724Z,143630.28
2019-03-10T14:45:15.196Z,143636.16
2019-03-10T14:50:13.514Z,143649.06
2019-03-10T14:55:12.559Z,143667.83
2019-03-10T15:00:12.983Z,143679.56
2019-03-10T15:05:09.427Z,143667.83
2019-03-10T15:10:08.145Z,143618.55
2019-03-10T15:15:07.654Z,143593.92
2019-03-10T15:20:06.117Z,143506.00
2019-03-10T15:25:03.802Z,143433.33
2019-03-10T15:29:59.978Z,143373.56
2019-03-10T15:34:55.893Z,143346.59
2019-03-10T15:39:51.822Z,143348.95
2019-03-10T15:44:47.758Z,143319.69
2019-03-10T15:49:43.668Z,143275.13
2019-03-10T15:54:39.577Z,143285.66
2019-03-10T15:59:36.523Z,143299.73
2019-03-10T16:04:32.637Z,143285.66
2019-03-10T16:09:28.538Z,143276.28
2019-03-10T16:14:24.460Z,143262.25
2019-03-10T16:19:20.490Z,143269.27
2019-03-10T16:24:16.418Z,143299.73
2019-03-10T16:29:12.321Z,143302.09
2019-03-10T16:34:08.245Z,143317.33
2019-03-10T16:39:06.067Z,143297.38
2019-03-10T16:44:11.092Z,143296.19
2019-03-10T16:49:07.387Z,143079.56
2019-03-10T16:54:03.665Z,142520.56
2019-03-10T16:59:01.323Z,142250.88
2019-03-10T17:04:07.076Z,142198.36
2019-03-10T17:09:15.077Z,142191.38
2019-03-10T17:14:11.178Z,142072.41
2019-03-10T17:19:09.591Z,141998.92
2019-03-10T17:24:05.858Z,141954.63
2019-03-10T17:29:03.160Z,141890.50
2019-03-10T17:34:02.973Z,141846.22
2019-03-10T17:38:58.992Z,141829.92
2019-03-10T17:43:57.997Z,141832.27
2019-03-10T17:49:00.194Z,141820.61
2019-03-10T17:53:58.837Z,141794.98
2019-03-10T17:58:55.791Z,141769.38
2019-03-10T18:03:51.891Z,141757.70
2019-03-10T18:08:47.801Z,141739.06
2019-03-10T18:13:46.115Z,141722.78
2019-03-10T18:18:42.147Z,141720.44
2019-03-10T18:23:38.141Z,141725.06
2019-03-10T18:28:36.427Z,141723.92
2019-03-10T18:33:32.558Z,141714.59
2019-03-10T18:38:28.466Z,141720.44
2019-03-10T18:43:25.245Z,141720.44
2019-03-10T18:48:21.299Z,141725.06
2019-03-10T18:53:17.273Z,141725.06
2019-03-10T18:58:14.111Z,141734.39
2019-03-10T19:03:10.017Z,141744.89
2019-03-10T19:08:05.942Z,141746.05
2019-03-10T19:13:01.967Z,141748.39
2019-03-10T19:17:57.874Z,141737.88
2019-03-10T19:22:54.370Z,141747.19
2019-03-10T19:27:54.794Z,141791.50
2019-03-10T19:32:50.936Z,141785.66
2019-03-10T19:37:46.829Z,141788.00
2019-03-10T19:42:42.894Z,141797.33
2019-03-10T19:47:38.806Z,141805.45
2019-03-10T19:52:34.777Z,141815.97
2019-03-10T19:57:36.108Z,141819.47
2019-03-10T20:02:32.190Z,141806.66
2019-03-10T20:07:28.104Z,141808.94
2019-03-10T20:12:24.116Z,141820.61
2019-03-10T20:17:20.043Z,141827.59
2019-03-10T20:22:16.012Z,141841.59
2019-03-10T20:27:11.950Z,141848.56
2019-03-10T20:32:13.872Z,141880.03
2019-03-10T20:37:05.763Z,141897.53
2019-03-10T20:42:05.384Z,141903.36
2019-03-10T20:46:59.586Z,141951.14
2019-03-10T20:51:55.488Z,141981.45
2019-03-10T20:56:51.425Z,142011.73
2019-03-10T21:01:47.487Z,142038.58
2019-03-10T21:06:43.419Z,142071.20
2019-03-10T21:11:40.588Z,142071.20
2019-03-10T21:16:36.618Z,142098.05
2019-03-10T21:21:32.526Z,142098.05
2019-03-10T21:26:28.442Z,142109.72
2019-03-10T21:31:24.450Z,142119.06
2019-03-10T21:36:20.388Z,142130.73
2019-03-10T21:41:16.345Z,142137.72
2019-03-10T21:46:12.255Z,142150.55
2019-03-10T21:51:08.207Z,142143.56
2019-03-10T21:56:04.338Z,142134.22
2019-03-10T22:01:00.241Z,142135.38
2019-03-10T22:05:56.367Z,142121.41
2019-03-10T22:10:52.310Z,142119.06
2019-03-10T22:15:48.219Z,142121.41
2019-03-10T22:20:44.122Z,142130.73
2019-03-10T22:25:40.029Z,142134.22
2019-03-10T22:30:35.961Z,142136.53
2019-03-10T22:35:31.865Z,142137.72
2019-03-10T22:40:27.798Z,142144.70
2019-03-10T22:45:23.731Z,142152.89
2019-03-10T22:50:19.717Z,142166.87
2019-03-10T22:55:15.708Z,142168.02
2019-03-10T23:00:44.097Z,142149.34
2019-03-10T23:05:41.564Z,142147.06
2019-03-10T23:10:37.832Z,142147.06
2019-03-10T23:15:33.717Z,142154.03
2019-03-10T23:20:29.625Z,142165.72
2019-03-10T23:25:25.548Z,142178.55
2019-03-10T23:30:21.449Z,142156.38
2019-03-10T23:35:17.356Z,142130.73
2019-03-10T23:40:18.060Z,142112.06
2019-03-10T23:45:17.648Z,142109.72
2019-03-10T23:50:17.473Z,142107.38
2019-03-10T23:55:13.593Z,142088.72
